Terminal Aerodrome Forecast
Issued by NWS

Home | Current Version | Previous Version | Text Only | Print | Product List | Glossary On
Versions: 1 2 3 4 5 6 7 8 9 10 11 12 13 14 15 16 17 18 19 20 21 22 23 24 25 26 27 28 29
924
FTUS43 KIND 181902 AAA
TAFBMG
TAF AMD
KBMG 181902Z 1819/1918 26008KT P6SM OVC008
      TEMPO 1821/1824 OVC015
     FM190100 VRB03KT P6SM BKN015
     FM190200 VRB03KT P6SM SCT015
     FM191100 VRB03KT P6SM BKN030
     FM191200 13004KT P6SM BKN020
     FM191500 12006KT P6SM BKN120=

USA.gov is the U.S. government's official web portal to all federal, state and local government web resources and services.